Date,TemperatureHighF,TemperatureAvgF,TemperatureLowF,DewpointHighF,DewpointAvgF,DewpointLowF,HumidityHigh,HumidityAvg,HumidityLow,PressureMaxIn,PressureMinIn,WindSpeedMaxMPH,WindSpeedAvgMPH,GustSpeedMaxMPH,PrecipitationSumIn
2013-3-1,71.6,43.0,30.0,21.2,14.1,6.8,55,34,11,28.79,28.61,13,4,17,0.00
2013-3-2,64.2,47.0,33.1,21.2,16.4,10.4,55,32,16,28.94,28.70,17,5,18,0.00
2013-3-3,76.5,59.4,38.1,30.2,19.7,14.0,39,23,13,28.73,28.35,23,10,27,0.00
2013-3-4,88.9,65.2,54.5,37.4,30.8,15.8,47,30,10,28.38,28.17,14,7,20,0.00
2013-3-5,66.0,65.8,65.5,21.2,21.2,21.2,18,18,18,28.26,28.23,3,3,4,0.00
2013-3-6,69.4,48.9,36.7,14.0,6.6,-0.4,26,18,12,28.94,28.64,12,4,13,0.00
2013-3-7,72.7,57.9,39.6,46.4,29.7,5.0,65,35,22,28.73,28.56,20,8,25,0.00
2013-3-8,62.6,57.6,55.8,60.8,54.4,46.4,98,88,65,28.67,28.53,17,9,20,0.00
2013-3-9,62.8,61.3,60.4,59.0,58.0,55.4,90,88,83,28.44,28.38,22,14,26,0.00
2013-3-10,62.8,54.5,39.2,42.8,26.0,12.2,60,34,16,28.61,28.29,19,8,24,0.00
2013-3-11,69.1,49.0,33.8,23.0,14.1,6.8,62,29,12,28.67,28.50,16,6,21,0.00
2013-3-12,83.5,61.5,41.2,24.8,18.9,12.2,38,21,10,28.70,28.53,17,6,20,0.00
2013-3-13,79.9,60.1,46.2,24.8,20.1,14.0,32,22,12,28.94,28.76,14,7,19,0.00
2013-3-14,78.1,62.7,47.8,41.0,30.1,19.4,66,31,15,28.88,28.67,18,8,23,0.00
2013-3-15,80.8,65.1,53.4,50.0,38.6,19.4,84,45,14,28.70,28.47,19,9,26,0.00
2013-3-16,84.6,71.1,56.5,55.4,39.4,28.4,69,34,16,28.47,28.20,20,12,29,0.00
2013-3-17,65.5,64.4,62.8,55.4,52.8,51.8,67,65,63,28.29,28.23,21,11,29,0.00
2013-3-18,86.7,69.6,54.3,62.6,38.7,21.2,94,43,11,28.44,28.20,12,6,15,0.00
2013-3-19,87.3,63.6,47.8,51.8,39.7,30.2,90,45,18,28.56,28.32,22,8,24,0.00
2013-3-20,70.7,56.9,46.2,50.0,34.2,15.8,89,50,14,28.76,28.53,17,7,19,0.00
2013-3-21,68.4,57.6,52.5,42.8,30.8,21.2,45,36,27,28.50,28.26,24,10,29,0.00
2013-3-22,84.4,65.9,48.7,59.0,45.6,32.0,84,53,20,28.29,28.11,12,6,15,0.00
2013-3-23,59.7,48.4,47.7,51.8,42.2,39.2,89,77,67,28.32,28.20,8,4,10,0.00
2013-3-24,58.8,48.4,36.7,55.4,17.8,3.2,89,33,14,28.67,28.20,19,10,28,0.00
2013-3-25,64.0,46.6,31.3,12.2,8.0,3.2,34,21,13,28.88,28.64,14,5,22,0.00
2013-3-26,70.9,50.1,28.2,17.6,8.4,-0.4,43,20,12,28.97,28.73,9,4,15,0.00
2013-3-27,70.2,55.3,38.1,33.8,21.6,3.2,43,27,17,28.82,28.59,20,9,28,0.00
2013-3-28,73.6,61.5,52.0,48.2,43.9,33.8,77,53,32,28.70,28.59,21,10,29,0.00
2013-3-29,78.4,66.3,56.1,57.2,45.1,35.6,94,52,24,28.67,28.53,20,9,27,0.00
2013-3-30,83.5,69.8,62.2,55.4,47.6,39.2,75,48,22,28.56,28.35,12,6,17,0.00
2013-3-31,82.8,69.3,61.7,62.6,54.8,46.4,83,62,30,28.50,28.35,14,5,18,0.00